sensor_id;sensor_type;location;lat;lon;timestamp;temperature;humidity
23231;DHT22;11784;49.818;8.632;2022-12-18T00:01:21;-2.20;61.80
23231;DHT22;11784;49.818;8.632;2022-12-18T00:03:48;-2.20;61.90
23231;DHT22;11784;49.818;8.632;2022-12-18T00:06:14;-2.20;62.10
23231;DHT22;11784;49.818;8.632;2022-12-18T00:08:41;-2.20;62.50
23231;DHT22;11784;49.818;8.632;2022-12-18T00:11:10;-2.20;62.80
23231;DHT22;11784;49.818;8.632;2022-12-18T00:13:37;-2.20;63.20
23231;DHT22;11784;49.818;8.632;2022-12-18T00:16:05;-2.20;63.30
23231;DHT22;11784;49.818;8.632;2022-12-18T00:18:31;-2.20;63.70
23231;DHT22;11784;49.818;8.632;2022-12-18T00:21:02;-2.20;64.10
23231;DHT22;11784;49.818;8.632;2022-12-18T00:23:28;-2.20;65.10
23231;DHT22;11784;49.818;8.632;2022-12-18T00:25:54;-2.20;64.90
23231;DHT22;11784;49.818;8.632;2022-12-18T00:28:19;-2.20;64.80
23231;DHT22;11784;49.818;8.632;2022-12-18T00:30:45;-2.20;64.60
23231;DHT22;11784;49.818;8.632;2022-12-18T00:33:10;-2.20;63.10
23231;DHT22;11784;49.818;8.632;2022-12-18T00:35:36;-2.20;62.70
23231;DHT22;11784;49.818;8.632;2022-12-18T00:38:01;-2.20;63.00
23231;DHT22;11784;49.818;8.632;2022-12-18T00:40:27;-2.20;63.80
23231;DHT22;11784;49.818;8.632;2022-12-18T00:42:52;-2.20;63.30
23231;DHT22;11784;49.818;8.632;2022-12-18T00:45:30;-2.20;64.20
23231;DHT22;11784;49.818;8.632;2022-12-18T00:47:56;-2.20;64.20
23231;DHT22;11784;49.818;8.632;2022-12-18T00:50:24;-2.20;64.10
23231;DHT22;11784;49.818;8.632;2022-12-18T00:52:50;-2.20;63.50
23231;DHT22;11784;49.818;8.632;2022-12-18T00:55:16;-2.20;62.50
23231;DHT22;11784;49.818;8.632;2022-12-18T00:57:42;-2.20;62.00
23231;DHT22;11784;49.818;8.632;2022-12-18T01:00:11;-2.20;61.60
23231;DHT22;11784;49.818;8.632;2022-12-18T01:02:37;-2.20;62.00
23231;DHT22;11784;49.818;8.632;2022-12-18T01:05:04;-2.20;62.30
23231;DHT22;11784;49.818;8.632;2022-12-18T01:07:30;-2.30;62.20
23231;DHT22;11784;49.818;8.632;2022-12-18T01:09:55;-2.30;62.70
23231;DHT22;11784;49.818;8.632;2022-12-18T01:12:21;-2.30;62.70
23231;DHT22;11784;49.818;8.632;2022-12-18T01:14:46;-2.30;62.20
23231;DHT22;11784;49.818;8.632;2022-12-18T01:17:12;-2.30;61.90
23231;DHT22;11784;49.818;8.632;2022-12-18T01:19:37;-2.30;61.90
23231;DHT22;11784;49.818;8.632;2022-12-18T01:22:03;-2.30;62.30
23231;DHT22;11784;49.818;8.632;2022-12-18T01:24:28;-2.30;62.20
23231;DHT22;11784;49.818;8.632;2022-12-18T01:26:54;-2.40;61.70
23231;DHT22;11784;49.818;8.632;2022-12-18T01:29:19;-2.40;62.10
23231;DHT22;11784;49.818;8.632;2022-12-18T01:31:45;-2.40;61.90
23231;DHT22;11784;49.818;8.632;2022-12-18T01:34:10;-2.40;61.90
23231;DHT22;11784;49.818;8.632;2022-12-18T01:36:38;-2.40;61.90
23231;DHT22;11784;49.818;8.632;2022-12-18T01:39:10;-2.50;61.50
23231;DHT22;11784;49.818;8.632;2022-12-18T01:41:36;-2.50;61.40
23231;DHT22;11784;49.818;8.632;2022-12-18T01:48:01;-2.60;61.30
23231;DHT22;11784;49.818;8.632;2022-12-18T01:53:25;-2.60;60.80
23231;DHT22;11784;49.818;8.632;2022-12-18T01:55:50;-2.70;60.60
23231;DHT22;11784;49.818;8.632;2022-12-18T01:58:18;-2.70;61.00
23231;DHT22;11784;49.818;8.632;2022-12-18T02:00:43;-2.70;61.00
23231;DHT22;11784;49.818;8.632;2022-12-18T02:03:09;-2.70;61.80
23231;DHT22;11784;49.818;8.632;2022-12-18T02:06:06;-2.70;61.80
23231;DHT22;11784;49.818;8.632;2022-12-18T02:16:43;-2.80;61.00
23231;DHT22;11784;49.818;8.632;2022-12-18T02:22:13;-2.80;60.80
23231;DHT22;11784;49.818;8.632;2022-12-18T02:27:49;-2.80;60.50
23231;DHT22;11784;49.818;8.632;2022-12-18T02:30:16;-2.80;60.80
23231;DHT22;11784;49.818;8.632;2022-12-18T02:32:49;-2.80;61.10
23231;DHT22;11784;49.818;8.632;2022-12-18T02:35:24;-2.80;61.00
23231;DHT22;11784;49.818;8.632;2022-12-18T02:37:54;-2.80;61.30
23231;DHT22;11784;49.818;8.632;2022-12-18T02:40:22;-2.80;61.10
23231;DHT22;11784;49.818;8.632;2022-12-18T02:42:48;-2.80;61.10
23231;DHT22;11784;49.818;8.632;2022-12-18T02:45:14;-2.80;61.40
23231;DHT22;11784;49.818;8.632;2022-12-18T02:47:43;-2.80;61.40
23231;DHT22;11784;49.818;8.632;2022-12-18T02:50:35;-2.80;61.50
23231;DHT22;11784;49.818;8.632;2022-12-18T02:56:32;-2.90;60.90
23231;DHT22;11784;49.818;8.632;2022-12-18T02:59:08;-2.90;61.00
23231;DHT22;11784;49.818;8.632;2022-12-18T03:04:48;-2.90;60.90
23231;DHT22;11784;49.818;8.632;2022-12-18T03:07:23;-2.90;60.20
23231;DHT22;11784;49.818;8.632;2022-12-18T03:09:53;-2.90;59.50
23231;DHT22;11784;49.818;8.632;2022-12-18T03:12:32;-2.90;59.70
23231;DHT22;11784;49.818;8.632;2022-12-18T03:15:13;-2.90;59.60
23231;DHT22;11784;49.818;8.632;2022-12-18T03:17:42;-2.90;59.60
23231;DHT22;11784;49.818;8.632;2022-12-18T03:20:15;-3.00;59.50
23231;DHT22;11784;49.818;8.632;2022-12-18T03:22:45;-3.00;59.50
23231;DHT22;11784;49.818;8.632;2022-12-18T03:25:13;-3.00;59.50
23231;DHT22;11784;49.818;8.632;2022-12-18T03:27:43;-3.00;60.30
23231;DHT22;11784;49.818;8.632;2022-12-18T03:30:12;-3.10;60.50
23231;DHT22;11784;49.818;8.632;2022-12-18T03:35:22;-3.10;60.50
23231;DHT22;11784;49.818;8.632;2022-12-18T03:37:48;-3.10;60.20
23231;DHT22;11784;49.818;8.632;2022-12-18T03:40:14;-3.10;60.20
23231;DHT22;11784;49.818;8.632;2022-12-18T03:42:54;-3.00;61.30
23231;DHT22;11784;49.818;8.632;2022-12-18T03:45:34;-3.10;61.30
23231;DHT22;11784;49.818;8.632;2022-12-18T03:50:56;-3.10;61.30
23231;DHT22;11784;49.818;8.632;2022-12-18T03:55:55;-3.10;60.70
23231;DHT22;11784;49.818;8.632;2022-12-18T03:58:24;-3.10;60.80
23231;DHT22;11784;49.818;8.632;2022-12-18T04:00:52;-3.10;61.40
23231;DHT22;11784;49.818;8.632;2022-12-18T04:03:20;-3.10;61.60
23231;DHT22;11784;49.818;8.632;2022-12-18T04:05:48;-3.10;60.80
23231;DHT22;11784;49.818;8.632;2022-12-18T04:08:15;-3.00;60.40
23231;DHT22;11784;49.818;8.632;2022-12-18T04:10:41;-3.00;59.70
23231;DHT22;11784;49.818;8.632;2022-12-18T04:13:06;-3.00;59.50
23231;DHT22;11784;49.818;8.632;2022-12-18T04:15:36;-3.00;59.60
23231;DHT22;11784;49.818;8.632;2022-12-18T04:18:02;-3.00;59.60
23231;DHT22;11784;49.818;8.632;2022-12-18T04:20:28;-3.10;59.40
23231;DHT22;11784;49.818;8.632;2022-12-18T04:22:54;-3.10;59.90
23231;DHT22;11784;49.818;8.632;2022-12-18T04:25:19;-3.10;60.00
23231;DHT22;11784;49.818;8.632;2022-12-18T04:27:45;-3.10;60.20
23231;DHT22;11784;49.818;8.632;2022-12-18T04:30:11;-3.10;60.70
23231;DHT22;11784;49.818;8.632;2022-12-18T04:32:36;-3.10;61.50
23231;DHT22;11784;49.818;8.632;2022-12-18T04:35:02;-3.10;60.70
23231;DHT22;11784;49.818;8.632;2022-12-18T04:37:29;-3.10;61.60
23231;DHT22;11784;49.818;8.632;2022-12-18T04:39:55;-3.10;60.80
23231;DHT22;11784;49.818;8.632;2022-12-18T04:42:20;-3.10;60.50
23231;DHT22;11784;49.818;8.632;2022-12-18T04:44:46;-3.10;59.80
23231;DHT22;11784;49.818;8.632;2022-12-18T04:47:11;-3.20;60.80
23231;DHT22;11784;49.818;8.632;2022-12-18T04:49:37;-3.20;61.10
23231;DHT22;11784;49.818;8.632;2022-12-18T04:52:03;-3.20;61.10
23231;DHT22;11784;49.818;8.632;2022-12-18T04:54:28;-3.20;60.50
23231;DHT22;11784;49.818;8.632;2022-12-18T04:56:54;-3.20;60.70
23231;DHT22;11784;49.818;8.632;2022-12-18T04:59:19;-3.20;61.10
23231;DHT22;11784;49.818;8.632;2022-12-18T05:01:45;-3.10;60.80
23231;DHT22;11784;49.818;8.632;2022-12-18T05:04:11;-3.10;61.20
23231;DHT22;11784;49.818;8.632;2022-12-18T05:06:36;-3.10;61.60
23231;DHT22;11784;49.818;8.632;2022-12-18T05:09:02;-3.10;61.40
23231;DHT22;11784;49.818;8.632;2022-12-18T05:11:27;-3.20;61.90
23231;DHT22;11784;49.818;8.632;2022-12-18T05:13:53;-3.20;62.50
23231;DHT22;11784;49.818;8.632;2022-12-18T05:16:18;-3.20;62.00
23231;DHT22;11784;49.818;8.632;2022-12-18T05:18:44;-3.20;62.50
23231;DHT22;11784;49.818;8.632;2022-12-18T05:21:09;-3.20;61.90
23231;DHT22;11784;49.818;8.632;2022-12-18T05:23:35;-3.20;62.70
23231;DHT22;11784;49.818;8.632;2022-12-18T05:26:04;-3.20;63.30
23231;DHT22;11784;49.818;8.632;2022-12-18T05:28:31;-3.20;62.60
23231;DHT22;11784;49.818;8.632;2022-12-18T05:30:58;-3.20;62.90
23231;DHT22;11784;49.818;8.632;2022-12-18T05:33:25;-3.20;62.50
23231;DHT22;11784;49.818;8.632;2022-12-18T05:36:00;-3.10;61.80
23231;DHT22;11784;49.818;8.632;2022-12-18T05:38:26;-3.10;62.00
23231;DHT22;11784;49.818;8.632;2022-12-18T05:40:53;-3.10;62.60
23231;DHT22;11784;49.818;8.632;2022-12-18T05:43:19;-3.10;62.80
23231;DHT22;11784;49.818;8.632;2022-12-18T05:45:47;-3.10;62.60
23231;DHT22;11784;49.818;8.632;2022-12-18T05:48:13;-3.10;62.60
23231;DHT22;11784;49.818;8.632;2022-12-18T05:50:40;-3.00;62.60
23231;DHT22;11784;49.818;8.632;2022-12-18T05:53:07;-3.00;62.60
23231;DHT22;11784;49.818;8.632;2022-12-18T05:55:34;-3.00;62.30
23231;DHT22;11784;49.818;8.632;2022-12-18T05:58:00;-3.10;61.60
23231;DHT22;11784;49.818;8.632;2022-12-18T06:00:26;-3.10;61.20
23231;DHT22;11784;49.818;8.632;2022-12-18T06:02:51;-3.10;61.10
23231;DHT22;11784;49.818;8.632;2022-12-18T06:05:17;-3.20;61.10
23231;DHT22;11784;49.818;8.632;2022-12-18T06:07:42;-3.20;60.30
23231;DHT22;11784;49.818;8.632;2022-12-18T06:10:08;-3.20;60.20
23231;DHT22;11784;49.818;8.632;2022-12-18T06:12:33;-3.20;60.70
23231;DHT22;11784;49.818;8.632;2022-12-18T06:15:00;-3.30;60.50
23231;DHT22;11784;49.818;8.632;2022-12-18T06:17:34;-3.30;59.90
23231;DHT22;11784;49.818;8.632;2022-12-18T06:19:59;-3.20;59.90
23231;DHT22;11784;49.818;8.632;2022-12-18T06:22:26;-3.20;59.70
23231;DHT22;11784;49.818;8.632;2022-12-18T06:24:52;-3.20;59.60
23231;DHT22;11784;49.818;8.632;2022-12-18T06:27:18;-3.30;59.90
23231;DHT22;11784;49.818;8.632;2022-12-18T06:29:43;-3.30;60.10
23231;DHT22;11784;49.818;8.632;2022-12-18T06:32:09;-3.30;60.40
23231;DHT22;11784;49.818;8.632;2022-12-18T06:34:37;-3.30;61.30
23231;DHT22;11784;49.818;8.632;2022-12-18T06:37:03;-3.40;61.30
23231;DHT22;11784;49.818;8.632;2022-12-18T06:39:28;-3.40;60.10
23231;DHT22;11784;49.818;8.632;2022-12-18T06:41:54;-3.40;59.80
23231;DHT22;11784;49.818;8.632;2022-12-18T06:44:20;-3.40;61.30
23231;DHT22;11784;49.818;8.632;2022-12-18T06:46:45;-3.40;61.40
23231;DHT22;11784;49.818;8.632;2022-12-18T06:49:11;-3.40;61.50
23231;DHT22;11784;49.818;8.632;2022-12-18T06:51:36;-3.40;61.40
23231;DHT22;11784;49.818;8.632;2022-12-18T06:54:02;-3.40;61.20
23231;DHT22;11784;49.818;8.632;2022-12-18T06:56:28;-3.30;60.40
23231;DHT22;11784;49.818;8.632;2022-12-18T06:58:54;-3.40;59.30
23231;DHT22;11784;49.818;8.632;2022-12-18T07:01:20;-3.40;60.10
23231;DHT22;11784;49.818;8.632;2022-12-18T07:03:46;-3.40;60.20
23231;DHT22;11784;49.818;8.632;2022-12-18T07:06:18;-3.30;60.10
23231;DHT22;11784;49.818;8.632;2022-12-18T07:08:44;-3.30;61.70
23231;DHT22;11784;49.818;8.632;2022-12-18T07:11:10;-3.20;61.40
23231;DHT22;11784;49.818;8.632;2022-12-18T07:13:36;-3.20;62.00
23231;DHT22;11784;49.818;8.632;2022-12-18T07:16:10;-3.10;64.40
23231;DHT22;11784;49.818;8.632;2022-12-18T07:18:36;-3.00;65.20
23231;DHT22;11784;49.818;8.632;2022-12-18T07:21:10;-3.00;65.90
23231;DHT22;11784;49.818;8.632;2022-12-18T07:23:36;-2.90;66.50
23231;DHT22;11784;49.818;8.632;2022-12-18T07:26:15;-2.90;67.00
23231;DHT22;11784;49.818;8.632;2022-12-18T07:28:41;-2.80;67.00
23231;DHT22;11784;49.818;8.632;2022-12-18T07:31:10;-2.70;67.60
23231;DHT22;11784;49.818;8.632;2022-12-18T07:33:36;-2.60;68.20
23231;DHT22;11784;49.818;8.632;2022-12-18T07:36:03;-2.60;68.30
23231;DHT22;11784;49.818;8.632;2022-12-18T07:38:29;-2.50;68.20
23231;DHT22;11784;49.818;8.632;2022-12-18T07:40:59;-2.50;67.80
23231;DHT22;11784;49.818;8.632;2022-12-18T07:43:25;-2.50;67.20
23231;DHT22;11784;49.818;8.632;2022-12-18T07:45:50;-2.50;67.00
23231;DHT22;11784;49.818;8.632;2022-12-18T07:48:16;-2.40;67.00
23231;DHT22;11784;49.818;8.632;2022-12-18T07:50:41;-2.40;66.70
23231;DHT22;11784;49.818;8.632;2022-12-18T07:53:07;-2.40;66.30
23231;DHT22;11784;49.818;8.632;2022-12-18T07:55:32;-2.40;66.10
23231;DHT22;11784;49.818;8.632;2022-12-18T07:58:01;-2.30;66.40
23231;DHT22;11784;49.818;8.632;2022-12-18T08:00:27;-2.40;65.70
23231;DHT22;11784;49.818;8.632;2022-12-18T08:02:53;-2.40;65.00
23231;DHT22;11784;49.818;8.632;2022-12-18T08:05:18;-2.30;64.90
23231;DHT22;11784;49.818;8.632;2022-12-18T08:07:46;-2.30;64.80
23231;DHT22;11784;49.818;8.632;2022-12-18T08:10:11;-2.30;64.60
23231;DHT22;11784;49.818;8.632;2022-12-18T08:12:37;-2.30;64.60
23231;DHT22;11784;49.818;8.632;2022-12-18T08:15:03;-2.30;64.40
23231;DHT22;11784;49.818;8.632;2022-12-18T08:17:28;-2.30;64.10
23231;DHT22;11784;49.818;8.632;2022-12-18T08:19:54;-2.30;64.00
23231;DHT22;11784;49.818;8.632;2022-12-18T08:22:19;-2.30;64.20
23231;DHT22;11784;49.818;8.632;2022-12-18T08:24:45;-2.30;64.10
23231;DHT22;11784;49.818;8.632;2022-12-18T08:27:10;-2.20;64.10
23231;DHT22;11784;49.818;8.632;2022-12-18T08:29:36;-2.20;64.30
23231;DHT22;11784;49.818;8.632;2022-12-18T08:32:02;-2.20;64.20
23231;DHT22;11784;49.818;8.632;2022-12-18T08:34:27;-2.10;64.30
23231;DHT22;11784;49.818;8.632;2022-12-18T08:36:53;-2.10;64.20
23231;DHT22;11784;49.818;8.632;2022-12-18T08:39:19;-2.10;64.10
23231;DHT22;11784;49.818;8.632;2022-12-18T08:41:44;-2.10;64.30
23231;DHT22;11784;49.818;8.632;2022-12-18T08:44:30;-2.10;64.30
23231;DHT22;11784;49.818;8.632;2022-12-18T08:47:05;-2.10;64.80
23231;DHT22;11784;49.818;8.632;2022-12-18T08:49:31;-2.10;64.90
23231;DHT22;11784;49.818;8.632;2022-12-18T08:51:57;-2.00;65.00
23231;DHT22;11784;49.818;8.632;2022-12-18T08:54:23;-1.90;64.70
23231;DHT22;11784;49.818;8.632;2022-12-18T08:56:49;-1.90;64.50
23231;DHT22;11784;49.818;8.632;2022-12-18T08:59:16;-1.90;64.50
23231;DHT22;11784;49.818;8.632;2022-12-18T09:01:42;-1.80;64.20
23231;DHT22;11784;49.818;8.632;2022-12-18T09:04:11;-1.80;63.90
23231;DHT22;11784;49.818;8.632;2022-12-18T09:06:36;-1.70;64.00
23231;DHT22;11784;49.818;8.632;2022-12-18T09:09:03;-1.70;63.60
23231;DHT22;11784;49.818;8.632;2022-12-18T09:11:30;-1.60;64.00
23231;DHT22;11784;49.818;8.632;2022-12-18T09:13:56;-1.60;64.00
23231;DHT22;11784;49.818;8.632;2022-12-18T09:16:23;-1.50;63.80
23231;DHT22;11784;49.818;8.632;2022-12-18T09:18:49;-1.50;63.50
23231;DHT22;11784;49.818;8.632;2022-12-18T09:21:18;-1.40;63.50
23231;DHT22;11784;49.818;8.632;2022-12-18T09:23:48;-1.40;64.20
23231;DHT22;11784;49.818;8.632;2022-12-18T09:26:14;-1.40;64.10
23231;DHT22;11784;49.818;8.632;2022-12-18T09:28:39;-1.30;64.00
23231;DHT22;11784;49.818;8.632;2022-12-18T09:31:07;-1.30;64.40
23231;DHT22;11784;49.818;8.632;2022-12-18T09:33:36;-1.20;64.30
23231;DHT22;11784;49.818;8.632;2022-12-18T09:36:04;-1.20;64.40
23231;DHT22;11784;49.818;8.632;2022-12-18T09:38:30;-1.10;64.60
23231;DHT22;11784;49.818;8.632;2022-12-18T09:41:28;-1.00;65.60
23231;DHT22;11784;49.818;8.632;2022-12-18T09:44:01;-0.90;66.20
23231;DHT22;11784;49.818;8.632;2022-12-18T09:46:38;-0.80;66.20
23231;DHT22;11784;49.818;8.632;2022-12-18T09:49:12;-0.80;66.60
23231;DHT22;11784;49.818;8.632;2022-12-18T09:51:56;-0.70;66.50
23231;DHT22;11784;49.818;8.632;2022-12-18T09:54:34;-0.60;66.90
23231;DHT22;11784;49.818;8.632;2022-12-18T09:57:01;-0.50;66.70
23231;DHT22;11784;49.818;8.632;2022-12-18T09:59:35;-0.40;67.20
23231;DHT22;11784;49.818;8.632;2022-12-18T10:02:13;-0.30;67.10
23231;DHT22;11784;49.818;8.632;2022-12-18T10:04:39;-0.20;67.60
23231;DHT22;11784;49.818;8.632;2022-12-18T10:07:19;-0.10;67.80
23231;DHT22;11784;49.818;8.632;2022-12-18T10:15:56;0.10;68.60
23231;DHT22;11784;49.818;8.632;2022-12-18T10:21:19;0.40;69.60
23231;DHT22;11784;49.818;8.632;2022-12-18T10:26:44;0.60;69.70
23231;DHT22;11784;49.818;8.632;2022-12-18T10:29:12;0.80;69.40
23231;DHT22;11784;49.818;8.632;2022-12-18T10:31:38;0.90;69.00
23231;DHT22;11784;49.818;8.632;2022-12-18T10:34:12;1.00;68.80
23231;DHT22;11784;49.818;8.632;2022-12-18T10:36:38;1.10;68.80
23231;DHT22;11784;49.818;8.632;2022-12-18T10:39:22;1.30;68.70
23231;DHT22;11784;49.818;8.632;2022-12-18T10:41:48;1.40;68.20
23231;DHT22;11784;49.818;8.632;2022-12-18T10:44:20;1.50;67.90
23231;DHT22;11784;49.818;8.632;2022-12-18T10:47:02;1.60;67.60
23231;DHT22;11784;49.818;8.632;2022-12-18T10:49:32;1.70;67.50
23231;DHT22;11784;49.818;8.632;2022-12-18T10:52:15;1.80;67.20
23231;DHT22;11784;49.818;8.632;2022-12-18T10:54:54;1.90;66.80
23231;DHT22;11784;49.818;8.632;2022-12-18T10:59:57;2.10;66.40
23231;DHT22;11784;49.818;8.632;2022-12-18T11:02:33;2.10;66.10
23231;DHT22;11784;49.818;8.632;2022-12-18T11:04:59;2.10;65.40
23231;DHT22;11784;49.818;8.632;2022-12-18T11:07:24;2.20;65.50
23231;DHT22;11784;49.818;8.632;2022-12-18T11:10:00;2.20;65.90
23231;DHT22;11784;49.818;8.632;2022-12-18T11:12:28;2.30;65.60
23231;DHT22;11784;49.818;8.632;2022-12-18T11:14:57;2.30;65.30
23231;DHT22;11784;49.818;8.632;2022-12-18T11:17:30;2.30;65.20
23231;DHT22;11784;49.818;8.632;2022-12-18T11:20:01;2.30;65.50
23231;DHT22;11784;49.818;8.632;2022-12-18T11:22:29;2.30;65.40
23231;DHT22;11784;49.818;8.632;2022-12-18T11:25:07;2.40;65.20
23231;DHT22;11784;49.818;8.632;2022-12-18T11:27:48;2.40;65.20
23231;DHT22;11784;49.818;8.632;2022-12-18T11:30:25;2.50;65.00
23231;DHT22;11784;49.818;8.632;2022-12-18T11:32:55;2.50;64.60
23231;DHT22;11784;49.818;8.632;2022-12-18T11:35:34;2.60;64.70
23231;DHT22;11784;49.818;8.632;2022-12-18T11:38:30;2.60;64.50
23231;DHT22;11784;49.818;8.632;2022-12-18T11:43:58;2.60;64.10
23231;DHT22;11784;49.818;8.632;2022-12-18T11:46:32;2.70;63.80
23231;DHT22;11784;49.818;8.632;2022-12-18T11:49:03;2.70;63.50
23231;DHT22;11784;49.818;8.632;2022-12-18T11:51:44;2.60;63.80
23231;DHT22;11784;49.818;8.632;2022-12-18T11:54:15;2.60;63.90
23231;DHT22;11784;49.818;8.632;2022-12-18T12:07:45;2.50;63.30
23231;DHT22;11784;49.818;8.632;2022-12-18T12:10:46;2.40;63.40
23231;DHT22;11784;49.818;8.632;2022-12-18T12:16:28;2.30;63.50
23231;DHT22;11784;49.818;8.632;2022-12-18T12:32:19;2.00;65.00
23231;DHT22;11784;49.818;8.632;2022-12-18T12:34:52;2.00;64.70
23231;DHT22;11784;49.818;8.632;2022-12-18T12:37:46;1.90;64.80
23231;DHT22;11784;49.818;8.632;2022-12-18T12:40:18;2.00;65.10
23231;DHT22;11784;49.818;8.632;2022-12-18T12:42:52;2.00;65.00
23231;DHT22;11784;49.818;8.632;2022-12-18T12:45:42;2.00;64.80
23231;DHT22;11784;49.818;8.632;2022-12-18T12:48:32;1.90;64.80
23231;DHT22;11784;49.818;8.632;2022-12-18T12:51:02;1.90;64.50
23231;DHT22;11784;49.818;8.632;2022-12-18T12:53:33;1.90;64.40
23231;DHT22;11784;49.818;8.632;2022-12-18T12:55:59;1.90;64.60
23231;DHT22;11784;49.818;8.632;2022-12-18T12:58:29;1.90;64.70
23231;DHT22;11784;49.818;8.632;2022-12-18T13:06:16;2.00;64.70
23231;DHT22;11784;49.818;8.632;2022-12-18T13:08:53;2.00;64.70
23231;DHT22;11784;49.818;8.632;2022-12-18T13:11:38;2.00;64.40
23231;DHT22;11784;49.818;8.632;2022-12-18T13:14:44;2.00;64.30
23231;DHT22;11784;49.818;8.632;2022-12-18T13:17:30;2.00;65.00
23231;DHT22;11784;49.818;8.632;2022-12-18T13:22:49;2.00;66.40
23231;DHT22;11784;49.818;8.632;2022-12-18T13:25:33;2.00;66.70
23231;DHT22;11784;49.818;8.632;2022-12-18T13:28:08;2.10;66.80
23231;DHT22;11784;49.818;8.632;2022-12-18T13:43:34;2.40;66.00
23231;DHT22;11784;49.818;8.632;2022-12-18T13:49:39;2.40;66.50
23231;DHT22;11784;49.818;8.632;2022-12-18T13:52:26;2.50;66.40
23231;DHT22;11784;49.818;8.632;2022-12-18T13:54:55;2.50;66.80
23231;DHT22;11784;49.818;8.632;2022-12-18T13:57:29;2.50;67.20
23231;DHT22;11784;49.818;8.632;2022-12-18T13:59:56;2.60;67.40
23231;DHT22;11784;49.818;8.632;2022-12-18T14:02:24;2.70;67.30
23231;DHT22;11784;49.818;8.632;2022-12-18T14:04:50;2.70;67.30
23231;DHT22;11784;49.818;8.632;2022-12-18T14:07:28;2.70;67.40
23231;DHT22;11784;49.818;8.632;2022-12-18T14:09:55;2.80;67.40
23231;DHT22;11784;49.818;8.632;2022-12-18T14:12:24;2.80;67.30
23231;DHT22;11784;49.818;8.632;2022-12-18T14:17:43;2.90;67.50
23231;DHT22;11784;49.818;8.632;2022-12-18T14:20:14;2.90;67.50
23231;DHT22;11784;49.818;8.632;2022-12-18T14:22:43;2.90;67.40
23231;DHT22;11784;49.818;8.632;2022-12-18T14:27:44;3.00;67.50
23231;DHT22;11784;49.818;8.632;2022-12-18T14:30:31;3.00;67.30
23231;DHT22;11784;49.818;8.632;2022-12-18T14:35:38;3.00;67.20
23231;DHT22;11784;49.818;8.632;2022-12-18T14:38:21;3.00;67.20
23231;DHT22;11784;49.818;8.632;2022-12-18T14:40:51;3.00;67.50
23231;DHT22;11784;49.818;8.632;2022-12-18T14:43:17;3.00;67.50
23231;DHT22;11784;49.818;8.632;2022-12-18T14:45:43;3.00;67.50
23231;DHT22;11784;49.818;8.632;2022-12-18T14:48:15;3.00;67.50
23231;DHT22;11784;49.818;8.632;2022-12-18T14:50:41;2.90;67.30
23231;DHT22;11784;49.818;8.632;2022-12-18T14:53:23;2.90;67.10
23231;DHT22;11784;49.818;8.632;2022-12-18T14:55:53;2.80;66.80
23231;DHT22;11784;49.818;8.632;2022-12-18T14:58:19;2.80;66.70
23231;DHT22;11784;49.818;8.632;2022-12-18T15:00:44;2.70;66.60
23231;DHT22;11784;49.818;8.632;2022-12-18T15:03:12;2.70;66.70
23231;DHT22;11784;49.818;8.632;2022-12-18T15:05:38;2.60;66.60
23231;DHT22;11784;49.818;8.632;2022-12-18T15:08:27;2.50;66.00
23231;DHT22;11784;49.818;8.632;2022-12-18T15:10:53;2.40;66.10
23231;DHT22;11784;49.818;8.632;2022-12-18T15:13:24;2.40;66.40
23231;DHT22;11784;49.818;8.632;2022-12-18T15:15:50;2.30;66.50
23231;DHT22;11784;49.818;8.632;2022-12-18T15:18:19;2.20;67.00
23231;DHT22;11784;49.818;8.632;2022-12-18T15:20:50;2.10;67.00
23231;DHT22;11784;49.818;8.632;2022-12-18T15:23:20;2.10;67.20
23231;DHT22;11784;49.818;8.632;2022-12-18T15:25:48;2.00;67.30
23231;DHT22;11784;49.818;8.632;2022-12-18T15:31:22;1.90;67.30
23231;DHT22;11784;49.818;8.632;2022-12-18T15:36:17;1.80;67.70
23231;DHT22;11784;49.818;8.632;2022-12-18T15:38:47;1.70;67.60
23231;DHT22;11784;49.818;8.632;2022-12-18T15:41:17;1.70;68.20
23231;DHT22;11784;49.818;8.632;2022-12-18T15:43:44;1.60;68.50
23231;DHT22;11784;49.818;8.632;2022-12-18T15:46:16;1.60;68.80
23231;DHT22;11784;49.818;8.632;2022-12-18T15:48:42;1.60;68.70
23231;DHT22;11784;49.818;8.632;2022-12-18T15:51:15;1.60;68.50
23231;DHT22;11784;49.818;8.632;2022-12-18T15:53:41;1.50;68.80
23231;DHT22;11784;49.818;8.632;2022-12-18T15:56:10;1.50;69.40
23231;DHT22;11784;49.818;8.632;2022-12-18T15:58:54;1.50;69.20
23231;DHT22;11784;49.818;8.632;2022-12-18T16:01:26;1.50;69.20
23231;DHT22;11784;49.818;8.632;2022-12-18T16:03:51;1.50;69.40
23231;DHT22;11784;49.818;8.632;2022-12-18T16:06:17;1.50;69.40
23231;DHT22;11784;49.818;8.632;2022-12-18T16:08:42;1.40;69.50
23231;DHT22;11784;49.818;8.632;2022-12-18T16:13:45;1.40;69.40
23231;DHT22;11784;49.818;8.632;2022-12-18T16:16:10;1.40;69.40
23231;DHT22;11784;49.818;8.632;2022-12-18T16:18:36;1.40;69.50
23231;DHT22;11784;49.818;8.632;2022-12-18T16:21:01;1.50;69.70
23231;DHT22;11784;49.818;8.632;2022-12-18T16:23:28;1.50;70.40
23231;DHT22;11784;49.818;8.632;2022-12-18T16:25:53;1.50;69.80
23231;DHT22;11784;49.818;8.632;2022-12-18T16:28:19;1.50;69.80
23231;DHT22;11784;49.818;8.632;2022-12-18T16:30:44;1.50;69.70
23231;DHT22;11784;49.818;8.632;2022-12-18T16:33:10;1.50;69.50
23231;DHT22;11784;49.818;8.632;2022-12-18T16:35:36;1.50;69.50
23231;DHT22;11784;49.818;8.632;2022-12-18T16:38:02;1.50;69.60
23231;DHT22;11784;49.818;8.632;2022-12-18T16:40:28;1.60;69.60
23231;DHT22;11784;49.818;8.632;2022-12-18T16:42:56;1.60;69.60
23231;DHT22;11784;49.818;8.632;2022-12-18T16:45:22;1.60;69.70
23231;DHT22;11784;49.818;8.632;2022-12-18T16:47:47;1.60;70.20
23231;DHT22;11784;49.818;8.632;2022-12-18T16:50:13;1.60;69.80
23231;DHT22;11784;49.818;8.632;2022-12-18T16:52:39;1.60;69.80
23231;DHT22;11784;49.818;8.632;2022-12-18T16:55:07;1.50;69.60
23231;DHT22;11784;49.818;8.632;2022-12-18T16:57:33;1.60;70.00
23231;DHT22;11784;49.818;8.632;2022-12-18T16:59:58;1.60;70.00
23231;DHT22;11784;49.818;8.632;2022-12-18T17:02:25;1.60;69.90
23231;DHT22;11784;49.818;8.632;2022-12-18T17:04:56;1.60;70.80
23231;DHT22;11784;49.818;8.632;2022-12-18T17:07:23;1.60;70.20
23231;DHT22;11784;49.818;8.632;2022-12-18T17:09:49;1.50;70.30
23231;DHT22;11784;49.818;8.632;2022-12-18T17:12:16;1.50;70.80
23231;DHT22;11784;49.818;8.632;2022-12-18T17:14:41;1.50;71.00
23231;DHT22;11784;49.818;8.632;2022-12-18T17:17:07;1.50;70.90
23231;DHT22;11784;49.818;8.632;2022-12-18T17:19:32;1.60;71.20
23231;DHT22;11784;49.818;8.632;2022-12-18T17:21:58;1.60;71.20
23231;DHT22;11784;49.818;8.632;2022-12-18T17:24:24;1.60;70.80
23231;DHT22;11784;49.818;8.632;2022-12-18T17:26:50;1.60;70.90
23231;DHT22;11784;49.818;8.632;2022-12-18T17:29:17;1.60;71.20
23231;DHT22;11784;49.818;8.632;2022-12-18T17:31:45;1.60;71.10
23231;DHT22;11784;49.818;8.632;2022-12-18T17:34:11;1.60;71.20
23231;DHT22;11784;49.818;8.632;2022-12-18T17:36:38;1.60;71.30
23231;DHT22;11784;49.818;8.632;2022-12-18T17:39:04;1.60;71.30
23231;DHT22;11784;49.818;8.632;2022-12-18T17:41:31;1.60;71.40
23231;DHT22;11784;49.818;8.632;2022-12-18T17:44:03;1.60;71.40
23231;DHT22;11784;49.818;8.632;2022-12-18T17:46:30;1.60;71.60
23231;DHT22;11784;49.818;8.632;2022-12-18T17:48:58;1.60;71.80
23231;DHT22;11784;49.818;8.632;2022-12-18T17:51:24;1.70;71.70